createdAt,value
2023-05-19T00:01:55.253Z,14.11
2023-05-19T00:04:31.137Z,14.10
2023-05-19T00:07:03.168Z,14.05
2023-05-19T00:09:34.104Z,14.00
2023-05-19T00:12:05.803Z,13.97
2023-05-19T00:14:36.696Z,13.96
2023-05-19T00:17:08.034Z,13.95
2023-05-19T00:19:40.747Z,13.90
2023-05-19T00:22:11.001Z,13.84
2023-05-19T00:24:41.087Z,13.82
2023-05-19T00:27:11.180Z,13.78
2023-05-19T00:29:42.208Z,13.77
2023-05-19T00:32:12.361Z,13.77
2023-05-19T00:34:45.139Z,13.75
2023-05-19T00:37:15.275Z,13.75
2023-05-19T00:39:45.305Z,13.75
2023-05-19T00:42:15.381Z,13.76
2023-05-19T00:44:45.534Z,13.75
2023-05-19T00:47:15.633Z,13.72
2023-05-19T00:49:48.289Z,13.69
2023-05-19T00:52:18.430Z,13.69
2023-05-19T00:54:49.364Z,13.68
2023-05-19T00:57:19.495Z,13.62
2023-05-19T00:59:49.774Z,13.58
2023-05-19T01:02:19.890Z,13.59
2023-05-19T01:04:55.637Z,13.57
2023-05-19T01:07:26.279Z,13.53
2023-05-19T01:09:56.605Z,13.47
2023-05-19T01:12:26.870Z,13.48
2023-05-19T01:14:57.033Z,13.45
2023-05-19T01:17:34.469Z,13.40
2023-05-19T01:20:17.038Z,13.36
2023-05-19T01:23:16.940Z,13.38
2023-05-19T01:26:14.614Z,13.34
2023-05-19T01:29:11.013Z,13.31
2023-05-19T01:31:47.298Z,13.25
2023-05-19T01:34:19.482Z,13.22
2023-05-19T01:36:52.460Z,13.19
2023-05-19T01:39:23.205Z,13.15
2023-05-19T01:41:55.293Z,13.12
2023-05-19T01:44:26.756Z,13.09
2023-05-19T01:47:00.163Z,13.09
2023-05-19T01:49:30.308Z,13.08
2023-05-19T01:52:00.426Z,13.05
2023-05-19T01:54:30.628Z,13.02
2023-05-19T01:57:10.299Z,12.99
2023-05-19T01:59:51.948Z,13.00
2023-05-19T02:02:33.772Z,12.98
2023-05-19T02:05:12.616Z,12.96
2023-05-19T02:07:47.746Z,12.93
2023-05-19T02:10:25.537Z,12.92
2023-05-19T02:12:57.195Z,12.89
2023-05-19T02:15:30.968Z,12.89
2023-05-19T02:18:06.856Z,12.89
2023-05-19T02:20:36.930Z,12.89
2023-05-19T02:23:07.044Z,12.88
2023-05-19T02:25:37.208Z,12.85
2023-05-19T02:28:07.638Z,12.88
2023-05-19T02:30:37.735Z,12.89
2023-05-19T02:33:11.581Z,12.89
2023-05-19T02:35:41.721Z,12.89
2023-05-19T02:38:11.784Z,12.89
2023-05-19T02:40:41.843Z,12.91
2023-05-19T02:43:12.170Z,12.92
2023-05-19T02:45:42.235Z,12.95
2023-05-19T02:48:15.564Z,12.97
2023-05-19T02:50:45.886Z,13.01
2023-05-19T02:53:15.959Z,13.06
2023-05-19T02:55:46.190Z,13.10
2023-05-19T02:58:16.270Z,13.09
2023-05-19T03:00:48.618Z,13.06
2023-05-19T03:03:21.474Z,13.05
2023-05-19T03:05:52.092Z,13.00
2023-05-19T03:08:22.587Z,12.97
2023-05-19T03:10:52.689Z,12.93
2023-05-19T03:13:22.919Z,12.95
2023-05-19T03:15:53.036Z,12.94
2023-05-19T03:18:26.144Z,12.96
2023-05-19T03:20:56.824Z,12.95
2023-05-19T03:23:27.424Z,12.93
2023-05-19T03:25:57.463Z,12.94
2023-05-19T03:28:27.716Z,12.92
2023-05-19T03:30:57.909Z,12.95
2023-05-19T03:33:34.679Z,12.99
2023-05-19T03:36:05.159Z,13.01
2023-05-19T03:38:39.481Z,13.04
2023-05-19T03:41:09.705Z,13.01
2023-05-19T03:43:39.887Z,13.04
2023-05-19T03:46:11.242Z,13.06
2023-05-19T03:48:46.937Z,13.10
2023-05-19T03:51:17.048Z,13.10
2023-05-19T03:53:48.844Z,13.14
2023-05-19T03:56:19.151Z,13.20
2023-05-19T03:58:49.962Z,13.26
2023-05-19T04:01:20.124Z,13.31
2023-05-19T04:03:52.894Z,13.35
2023-05-19T04:06:23.698Z,13.43
2023-05-19T04:08:53.937Z,13.50
2023-05-19T04:11:24.204Z,13.58
2023-05-19T04:13:55.342Z,13.63
2023-05-19T04:16:25.631Z,13.71
2023-05-19T04:18:58.587Z,13.80
2023-05-19T04:21:28.864Z,13.87
2023-05-19T04:24:00.140Z,14.00
2023-05-19T04:26:34.228Z,14.14
2023-05-19T04:29:05.101Z,14.25
2023-05-19T04:31:37.142Z,14.32
2023-05-19T04:34:12.220Z,14.36
2023-05-19T04:36:42.720Z,14.44
2023-05-19T04:39:13.191Z,14.52
2023-05-19T04:41:46.418Z,14.65
2023-05-19T04:44:18.568Z,14.82
2023-05-19T04:46:54.544Z,14.97
2023-05-19T04:49:29.162Z,15.17
2023-05-19T04:51:59.373Z,15.31
2023-05-19T04:54:33.436Z,15.36
2023-05-19T04:57:04.031Z,15.35
2023-05-19T04:59:36.872Z,15.41
2023-05-19T05:02:10.216Z,15.46
2023-05-19T05:04:44.346Z,15.63
2023-05-19T05:07:14.592Z,15.80
2023-05-19T05:09:45.563Z,15.88
2023-05-19T05:12:17.888Z,15.95
2023-05-19T05:14:50.574Z,16.01
2023-05-19T05:17:23.297Z,16.08
2023-05-19T05:19:56.950Z,16.20
2023-05-19T05:22:27.724Z,16.35
2023-05-19T05:24:58.973Z,16.57
2023-05-19T05:27:29.407Z,16.76
2023-05-19T05:30:00.850Z,16.79
2023-05-19T05:32:32.013Z,16.84
2023-05-19T05:35:09.745Z,16.92
2023-05-19T05:37:39.971Z,17.09
2023-05-19T05:40:14.828Z,17.18
2023-05-19T05:42:47.918Z,17.15
2023-05-19T05:45:19.621Z,17.10
2023-05-19T05:47:51.292Z,17.20
2023-05-19T05:50:24.860Z,17.15
2023-05-19T05:52:58.366Z,17.26
2023-05-19T05:55:31.284Z,17.46
2023-05-19T05:58:03.791Z,17.55
2023-05-19T06:00:34.782Z,17.91
2023-05-19T06:03:06.075Z,18.17
2023-05-19T06:05:39.449Z,18.38
2023-05-19T06:08:09.835Z,18.60
2023-05-19T06:10:41.893Z,18.89
2023-05-19T06:13:13.937Z,19.10
2023-05-19T06:15:44.925Z,19.31
2023-05-19T06:18:29.122Z,19.45
2023-05-19T06:21:02.242Z,19.63
2023-05-19T06:23:33.564Z,19.87
2023-05-19T06:26:03.819Z,20.13
2023-05-19T06:28:37.475Z,20.39
2023-05-19T06:31:08.581Z,20.62
2023-05-19T06:33:50.105Z,20.92
2023-05-19T06:36:22.990Z,21.16
2023-05-19T06:38:54.844Z,21.27
2023-05-19T06:41:28.106Z,21.51
2023-05-19T06:43:58.234Z,21.66
2023-05-19T06:46:28.443Z,21.67
2023-05-19T06:48:58.890Z,21.71
2023-05-19T06:51:33.697Z,21.67
2023-05-19T06:54:03.868Z,21.83
2023-05-19T06:56:34.117Z,21.69
2023-05-19T06:59:04.263Z,21.59
2023-05-19T07:01:38.944Z,21.60
2023-05-19T07:04:09.026Z,21.58
2023-05-19T07:06:41.816Z,21.37
2023-05-19T07:09:12.810Z,21.20
2023-05-19T07:11:44.883Z,21.22
2023-05-19T07:14:17.074Z,21.22
2023-05-19T07:16:47.998Z,21.29
2023-05-19T07:19:19.921Z,21.42
2023-05-19T07:21:53.065Z,21.54
2023-05-19T07:24:23.882Z,21.66
2023-05-19T07:26:55.544Z,21.72
2023-05-19T07:29:25.877Z,21.75
2023-05-19T07:31:58.197Z,21.80
2023-05-19T07:34:28.481Z,21.88
2023-05-19T07:37:02.382Z,22.04
2023-05-19T07:39:32.706Z,22.13
2023-05-19T07:42:07.593Z,22.32
2023-05-19T07:44:41.808Z,22.70
2023-05-19T07:47:14.915Z,22.93
2023-05-19T07:49:45.893Z,23.49
2023-05-19T07:52:21.367Z,24.16
2023-05-19T07:54:55.743Z,24.83
2023-05-19T07:57:25.955Z,25.20
2023-05-19T07:59:56.222Z,25.31
2023-05-19T08:02:26.555Z,25.60
2023-05-19T08:04:56.967Z,25.82
2023-05-19T08:07:29.868Z,26.01
2023-05-19T08:10:00.298Z,26.03
2023-05-19T08:12:30.620Z,26.30
2023-05-19T08:15:01.833Z,26.77
2023-05-19T08:17:32.397Z,27.02
2023-05-19T08:20:04.151Z,27.24
2023-05-19T08:22:37.451Z,27.45
2023-05-19T08:25:08.208Z,27.77
2023-05-19T08:27:38.496Z,27.86
2023-05-19T08:30:10.375Z,27.63
2023-05-19T08:32:41.162Z,27.19
2023-05-19T08:35:12.775Z,27.17
2023-05-19T08:37:46.145Z,27.18
2023-05-19T08:40:21.173Z,26.95
2023-05-19T08:42:51.522Z,27.16
2023-05-19T08:45:21.794Z,27.32
2023-05-19T08:47:54.031Z,27.19
2023-05-19T08:50:31.530Z,27.37
2023-05-19T08:53:28.932Z,27.93
2023-05-19T08:56:10.759Z,28.63
2023-05-19T08:58:44.343Z,28.49
2023-05-19T09:01:17.491Z,28.85
2023-05-19T09:03:50.178Z,29.03
2023-05-19T09:06:21.507Z,28.73
2023-05-19T09:08:54.390Z,28.75
2023-05-19T09:11:24.800Z,29.19
2023-05-19T09:13:55.059Z,29.50
2023-05-19T09:16:27.695Z,29.78
2023-05-19T09:19:00.678Z,30.46
2023-05-19T09:21:33.292Z,30.90
2023-05-19T09:24:10.918Z,31.35
2023-05-19T09:26:51.432Z,30.65
2023-05-19T09:29:31.858Z,29.87
2023-05-19T09:32:05.168Z,29.71
2023-05-19T09:34:35.521Z,28.82
2023-05-19T09:37:05.660Z,27.95
2023-05-19T09:39:38.381Z,27.84
2023-05-19T09:42:10.043Z,28.21
2023-05-19T09:44:40.209Z,28.34
2023-05-19T09:47:13.292Z,28.51
2023-05-19T09:49:50.526Z,28.73
2023-05-19T09:52:20.966Z,28.78
2023-05-19T09:54:56.237Z,28.68
2023-05-19T09:57:30.009Z,28.31
2023-05-19T10:00:01.717Z,27.81
2023-05-19T10:02:35.656Z,27.62
2023-05-19T10:05:10.228Z,27.21
2023-05-19T10:07:41.497Z,26.06
2023-05-19T10:10:16.472Z,25.64
2023-05-19T10:12:47.631Z,25.86
2023-05-19T10:15:22.754Z,26.54
2023-05-19T10:18:00.189Z,27.03
2023-05-19T10:20:30.901Z,27.40
2023-05-19T10:23:03.111Z,27.21
2023-05-19T10:25:38.402Z,27.13
2023-05-19T10:28:16.422Z,27.29
2023-05-19T10:30:49.649Z,26.90
2023-05-19T10:33:25.015Z,26.82
2023-05-19T10:36:14.793Z,26.75
2023-05-19T10:38:51.269Z,26.52
2023-05-19T10:41:36.855Z,26.22
2023-05-19T10:44:24.402Z,26.09
2023-05-19T10:46:56.816Z,26.01
2023-05-19T10:49:31.311Z,25.61
2023-05-19T10:52:01.970Z,25.47
2023-05-19T10:54:59.970Z,25.32
2023-05-19T10:57:33.470Z,25.56
2023-05-19T11:00:11.358Z,26.04
2023-05-19T11:02:56.366Z,26.27
2023-05-19T11:05:33.092Z,26.62
2023-05-19T11:08:04.735Z,27.39
2023-05-19T11:10:35.451Z,27.44
2023-05-19T11:13:08.630Z,27.37
2023-05-19T11:15:39.759Z,27.12
2023-05-19T11:18:10.916Z,26.61
2023-05-19T11:20:42.181Z,26.19
2023-05-19T11:23:13.949Z,26.13
2023-05-19T11:25:46.540Z,26.49
2023-05-19T11:28:26.322Z,26.55
2023-05-19T11:30:59.292Z,26.81
2023-05-19T11:33:30.317Z,27.28
2023-05-19T11:36:00.979Z,27.22
2023-05-19T11:38:31.977Z,26.77
2023-05-19T11:41:03.244Z,26.76
2023-05-19T11:43:36.035Z,27.27
2023-05-19T11:46:06.375Z,27.66
2023-05-19T11:48:37.351Z,27.57
2023-05-19T11:51:10.390Z,27.11
2023-05-19T11:53:40.495Z,26.52
2023-05-19T11:56:12.551Z,26.08
2023-05-19T11:58:45.455Z,26.21
2023-05-19T12:01:15.792Z,26.28
2023-05-19T12:03:46.693Z,26.22
2023-05-19T12:06:17.730Z,25.82
2023-05-19T12:08:48.773Z,25.86
2023-05-19T12:11:20.084Z,26.91
2023-05-19T12:13:54.989Z,26.86
2023-05-19T12:16:25.470Z,26.95
2023-05-19T12:18:55.862Z,26.90
2023-05-19T12:21:26.088Z,26.61
2023-05-19T12:24:07.316Z,27.16
2023-05-19T12:26:38.963Z,26.82
2023-05-19T12:29:12.066Z,26.31
2023-05-19T12:31:42.638Z,25.72
2023-05-19T12:34:15.592Z,25.17
2023-05-19T12:36:46.740Z,26.02
2023-05-19T12:39:18.445Z,26.89
2023-05-19T12:41:49.698Z,28.59
2023-05-19T12:44:22.827Z,28.91
2023-05-19T12:46:56.263Z,28.08
2023-05-19T12:49:26.603Z,26.83
2023-05-19T12:51:57.094Z,26.13
2023-05-19T12:54:27.319Z,26.06
2023-05-19T12:57:00.895Z,25.99
2023-05-19T12:59:38.722Z,26.05
2023-05-19T13:02:09.901Z,25.70
2023-05-19T13:04:40.082Z,25.31
2023-05-19T13:07:10.603Z,25.47
2023-05-19T13:09:40.722Z,26.53
2023-05-19T13:12:11.021Z,26.61
2023-05-19T13:14:44.413Z,26.22
2023-05-19T13:17:14.829Z,25.70
2023-05-19T13:19:49.652Z,25.23
2023-05-19T13:22:25.079Z,24.84
2023-05-19T13:24:59.089Z,24.82
2023-05-19T13:27:29.517Z,24.70
2023-05-19T13:30:04.668Z,24.48
2023-05-19T13:32:38.002Z,24.37
2023-05-19T13:35:09.472Z,24.31
2023-05-19T13:37:39.913Z,24.01
2023-05-19T13:40:11.797Z,23.83
2023-05-19T13:42:42.254Z,23.96
2023-05-19T13:45:15.859Z,23.67
2023-05-19T13:47:46.031Z,23.51
2023-05-19T13:50:16.131Z,23.35
2023-05-19T13:52:46.406Z,23.26
2023-05-19T13:55:16.806Z,23.39
2023-05-19T13:57:47.125Z,23.58
2023-05-19T14:02:54.222Z,23.69
2023-05-19T14:05:24.905Z,23.62
2023-05-19T14:07:55.821Z,23.61
2023-05-19T14:10:26.399Z,23.62
2023-05-19T14:15:38.338Z,23.56
2023-05-19T14:18:08.613Z,23.33
2023-05-19T14:20:38.910Z,23.32
2023-05-19T14:23:24.022Z,23.37
2023-05-19T14:25:54.275Z,23.45
2023-05-19T14:28:26.724Z,23.51
2023-05-19T14:30:59.663Z,23.56
2023-05-19T14:33:34.896Z,23.62
2023-05-19T14:36:06.440Z,23.63
2023-05-19T14:38:36.703Z,23.48
2023-05-19T14:41:07.297Z,23.28
2023-05-19T14:43:37.549Z,23.24
2023-05-19T14:46:10.505Z,23.20
2023-05-19T14:48:40.818Z,23.10
2023-05-19T14:51:11.091Z,23.03
2023-05-19T14:53:41.329Z,22.99
2023-05-19T14:56:14.580Z,22.86
2023-05-19T14:58:44.821Z,22.86
2023-05-19T15:01:17.761Z,22.93
2023-05-19T15:03:48.687Z,23.01
2023-05-19T15:06:19.085Z,22.88
2023-05-19T15:08:49.284Z,22.68
2023-05-19T15:11:19.478Z,22.54
2023-05-19T15:13:49.776Z,22.57
2023-05-19T15:16:22.568Z,22.68
2023-05-19T15:18:53.602Z,23.00
2023-05-19T15:21:23.853Z,23.12
2023-05-19T15:23:55.899Z,22.97
2023-05-19T15:26:28.314Z,22.68
2023-05-19T15:29:00.157Z,22.52
2023-05-19T15:31:34.059Z,22.37
2023-05-19T15:34:05.837Z,22.32
2023-05-19T15:36:36.161Z,22.33
2023-05-19T15:39:06.789Z,22.37
2023-05-19T15:41:37.056Z,22.34
2023-05-19T15:44:08.083Z,22.31
2023-05-19T15:46:41.124Z,22.36
2023-05-19T15:49:12.596Z,22.40
2023-05-19T15:51:43.426Z,22.28
2023-05-19T15:54:13.730Z,22.18
2023-05-19T15:56:44.093Z,21.99
2023-05-19T15:59:14.770Z,21.89
2023-05-19T16:01:53.003Z,21.81
2023-05-19T16:04:23.800Z,21.78
2023-05-19T16:06:54.394Z,21.71
2023-05-19T16:09:25.019Z,21.74
2023-05-19T16:11:55.277Z,21.78
2023-05-19T16:14:31.406Z,21.75
2023-05-19T16:17:04.861Z,21.81
2023-05-19T16:19:35.082Z,21.90
2023-05-19T16:22:07.677Z,21.91
2023-05-19T16:24:37.875Z,21.83
2023-05-19T16:27:08.924Z,21.72
2023-05-19T16:29:42.430Z,21.59
2023-05-19T16:32:16.485Z,21.50
2023-05-19T16:34:47.285Z,21.53
2023-05-19T16:37:23.007Z,21.48
2023-05-19T16:39:53.309Z,21.43
2023-05-19T16:42:23.507Z,21.43
2023-05-19T16:44:53.767Z,21.35
2023-05-19T16:47:41.527Z,21.28
2023-05-19T16:50:13.087Z,21.34
2023-05-19T16:52:43.462Z,21.38
2023-05-19T16:55:17.493Z,21.37
2023-05-19T16:57:47.797Z,21.36
2023-05-19T17:00:18.741Z,21.32
2023-05-19T17:02:51.822Z,21.34
2023-05-19T17:05:22.012Z,21.37
2023-05-19T17:07:52.098Z,21.34
2023-05-19T17:10:22.862Z,21.40
2023-05-19T17:12:56.219Z,21.52
2023-05-19T17:15:27.249Z,21.56
2023-05-19T17:18:00.285Z,21.65
2023-05-19T17:20:30.811Z,21.68
2023-05-19T17:23:00.999Z,21.69
2023-05-19T17:25:31.515Z,21.68
2023-05-19T17:28:01.872Z,21.63
2023-05-19T17:30:32.512Z,21.53
2023-05-19T17:33:06.282Z,21.38
2023-05-19T17:35:46.049Z,21.24
2023-05-19T17:38:16.485Z,21.14
2023-05-19T17:40:50.220Z,21.11
2023-05-19T17:43:20.561Z,21.07
2023-05-19T17:45:52.913Z,20.99
2023-05-19T17:48:29.297Z,20.95
2023-05-19T17:51:03.134Z,20.87
2023-05-19T17:53:37.947Z,20.83
2023-05-19T17:56:15.969Z,20.82
2023-05-19T17:58:51.095Z,20.72
2023-05-19T18:01:33.803Z,20.60
2023-05-19T18:04:17.008Z,20.54
2023-05-19T18:06:48.212Z,20.41
2023-05-19T18:09:23.130Z,20.30
2023-05-19T18:11:55.304Z,20.25
2023-05-19T18:14:27.056Z,20.21
2023-05-19T18:16:57.844Z,20.09
2023-05-19T18:19:30.895Z,19.94
2023-05-19T18:22:01.452Z,19.81
2023-05-19T18:24:31.616Z,19.72
2023-05-19T18:27:02.183Z,19.70
2023-05-19T18:29:34.272Z,19.72
2023-05-19T18:32:04.515Z,19.66
2023-05-19T18:34:37.640Z,19.64
2023-05-19T18:37:13.192Z,19.58
2023-05-19T18:39:44.250Z,19.61
2023-05-19T18:42:14.499Z,19.60
2023-05-19T18:44:46.990Z,19.57
2023-05-19T18:47:23.096Z,19.50
2023-05-19T18:49:56.113Z,19.46
2023-05-19T18:52:27.305Z,19.44
2023-05-19T18:55:04.126Z,19.34
2023-05-19T18:57:37.308Z,19.28
2023-05-19T19:00:09.604Z,19.23
2023-05-19T19:02:41.756Z,19.21
2023-05-19T19:05:18.062Z,19.18
2023-05-19T19:07:49.712Z,19.16
2023-05-19T19:10:26.440Z,19.15
2023-05-19T19:12:58.017Z,19.15
2023-05-19T19:15:31.366Z,19.15
2023-05-19T19:18:02.538Z,19.09
2023-05-19T19:20:35.606Z,19.02
2023-05-19T19:23:06.979Z,19.01
2023-05-19T19:25:37.233Z,18.97
2023-05-19T19:28:07.599Z,18.96
2023-05-19T19:30:41.351Z,18.92
2023-05-19T19:33:11.567Z,18.90
2023-05-19T19:35:44.550Z,18.91
2023-05-19T19:38:14.823Z,18.92
2023-05-19T19:40:45.168Z,18.87
2023-05-19T19:43:15.333Z,18.87
2023-05-19T19:45:45.455Z,18.84
2023-05-19T19:48:15.633Z,18.82
2023-05-19T19:50:52.987Z,18.77
2023-05-19T19:53:23.154Z,18.72
2023-05-19T19:56:00.261Z,18.64
2023-05-19T19:58:31.246Z,18.63
2023-05-19T20:01:02.956Z,18.61
2023-05-19T20:03:33.675Z,18.65
2023-05-19T20:06:07.774Z,18.73
2023-05-19T20:08:52.871Z,18.71
2023-05-19T20:11:27.010Z,18.67
2023-05-19T20:13:57.254Z,18.61
2023-05-19T20:16:31.808Z,18.51
2023-05-19T20:19:04.677Z,18.48
2023-05-19T20:24:25.325Z,18.38
2023-05-19T20:26:55.787Z,18.39
2023-05-19T20:29:26.096Z,18.35
2023-05-19T20:31:57.369Z,18.34
2023-05-19T20:34:27.815Z,18.34
2023-05-19T20:37:00.770Z,18.36
2023-05-19T20:39:31.369Z,18.35
2023-05-19T20:42:04.408Z,18.32
2023-05-19T20:44:34.628Z,18.25
2023-05-19T20:47:04.956Z,18.21
2023-05-19T20:49:35.413Z,18.17
2023-05-19T20:52:11.012Z,18.15
2023-05-19T20:54:44.393Z,18.06
2023-05-19T20:57:15.076Z,18.03
2023-05-19T20:59:45.218Z,17.97
2023-05-19T21:02:15.434Z,17.94
2023-05-19T21:04:46.314Z,17.95
2023-05-19T21:07:24.537Z,17.94
2023-05-19T21:09:54.757Z,17.90
2023-05-19T21:12:25.476Z,17.88
2023-05-19T21:14:55.571Z,17.88
2023-05-19T21:17:25.779Z,17.83
2023-05-19T21:19:59.657Z,17.77
2023-05-19T21:22:32.528Z,17.71
2023-05-19T21:25:02.870Z,17.65
2023-05-19T21:27:35.833Z,17.62
2023-05-19T21:30:06.824Z,17.62
2023-05-19T21:32:39.711Z,17.61
2023-05-19T21:35:12.728Z,17.56
2023-05-19T21:37:48.241Z,17.50
2023-05-19T21:40:18.737Z,17.44
2023-05-19T21:42:49.032Z,17.40
2023-05-19T21:45:20.340Z,17.34
2023-05-19T21:47:51.950Z,17.30
2023-05-19T21:50:22.144Z,17.24
2023-05-19T21:52:54.915Z,17.24
2023-05-19T21:55:25.284Z,17.22
2023-05-19T21:57:55.401Z,17.17
2023-05-19T22:00:25.899Z,17.15
2023-05-19T22:02:56.093Z,17.11
2023-05-19T22:05:26.314Z,17.10
2023-05-19T22:07:59.241Z,17.03
2023-05-19T22:10:29.520Z,17.04
2023-05-19T22:12:59.883Z,16.98
2023-05-19T22:15:30.099Z,16.93
2023-05-19T22:18:00.266Z,16.89
2023-05-19T22:20:30.536Z,16.89
2023-05-19T22:23:04.233Z,16.88
2023-05-19T22:25:34.643Z,16.84
2023-05-19T22:28:06.103Z,16.79
2023-05-19T22:30:38.493Z,16.74
2023-05-19T22:33:10.127Z,16.67
2023-05-19T22:35:40.490Z,16.65
2023-05-19T22:38:13.249Z,16.63
2023-05-19T22:40:43.640Z,16.62
2023-05-19T22:43:13.944Z,16.58
2023-05-19T22:45:44.173Z,16.55
2023-05-19T22:48:14.294Z,16.58
2023-05-19T22:50:44.492Z,16.55
2023-05-19T22:53:17.371Z,16.54
2023-05-19T22:55:47.666Z,16.53
2023-05-19T22:58:17.730Z,16.49
2023-05-19T23:00:47.919Z,16.47
2023-05-19T23:03:18.420Z,16.38
2023-05-19T23:05:48.694Z,16.37
2023-05-19T23:08:21.393Z,16.38
2023-05-19T23:10:51.632Z,16.35
2023-05-19T23:13:21.795Z,16.27
2023-05-19T23:15:52.077Z,16.22
2023-05-19T23:18:22.167Z,16.21
2023-05-19T23:20:52.286Z,16.17
2023-05-19T23:23:25.036Z,16.17
2023-05-19T23:25:55.120Z,16.17
2023-05-19T23:28:25.310Z,16.07
2023-05-19T23:30:56.511Z,16.05
2023-05-19T23:33:26.718Z,15.97
2023-05-19T23:35:57.258Z,15.95
2023-05-19T23:38:29.986Z,15.96
2023-05-19T23:41:00.065Z,15.97
2023-05-19T23:43:30.369Z,15.93
2023-05-19T23:46:00.586Z,15.88
2023-05-19T23:48:31.484Z,15.84
2023-05-19T23:51:01.769Z,15.82
2023-05-19T23:53:34.558Z,15.78
2023-05-19T23:56:04.636Z,15.75
2023-05-19T23:58:34.917Z,15.75
